This is the latest recevied weather packets stored in our database for station/object SP1BMW-13. If no packets are shown the sender has not sent any weather packets the latest 10 day(s).
| Time | Temp. | Humidity | Pressure | Rain* | Wind** | Luminosity | Snow |
|---|---|---|---|---|---|---|---|
| 1788100541 | 27.22° C | 45% | 1008.1 hPa | 0 mm | 2.24 m/s, 254° | 415 W/m² | - |
| 1788100483 | 26.67° C | 45% | 1007.9 hPa | 0 mm | 2.68 m/s, 255° | 427 W/m² | - |
| 1788100418 | 26.67° C | 45% | 1008.1 hPa | 0 mm | 1.79 m/s, 189° | 456 W/m² | - |
| 1788100357 | 26.67° C | 45% | 1007.9 hPa | 0 mm | 0.89 m/s, 336° | 477 W/m² | - |
| 1788100297 | 26.67° C | 46% | 1008 hPa | 0 mm | 0.45 m/s, 238° | 492 W/m² | - |
| 1788100238 | 26.67° C | 46% | 1007.9 hPa | 0 mm | 2.24 m/s, 186° | 313 W/m² | - |
| 1788100180 | 26.67° C | 46% | 1008 hPa | 0 mm | 1.79 m/s, 272° | 461 W/m² | - |
| 1788100118 | 26.67° C | 45% | 1007.9 hPa | 0 mm | 1.79 m/s, 171° | 401 W/m² | - |
| 1788100057 | 26.67° C | 45% | 1007.8 hPa | 0 mm | 1.79 m/s, 299° | 469 W/m² | - |
| 1788099999 | 26.67° C | 44% | 1008.2 hPa | 0 mm | 1.34 m/s, 193° | 182 W/m² | - |
| 1788099946 | 27.22° C | 45% | 1008 hPa | 0 mm | 0.89 m/s, 249° | 143 W/m² | - |
| 1788099878 | 27.22° C | 44% | 1008 hPa | 0 mm | 2.24 m/s, 284° | 275 W/m² | - |
| 1788099820 | 27.22° C | 44% | 1007.9 hPa | 0 mm | 1.79 m/s, 270° | 252 W/m² | - |
| 1788099760 | 27.22° C | 44% | 1008 hPa | 0 mm | 1.79 m/s, 206° | 129 W/m² | - |
| 1788099701 | 27.22° C | 44% | 1007.8 hPa | 0 mm | 2.24 m/s, 259° | 136 W/m² | - |
| 1788099638 | 26.67° C | 46% | 1007.9 hPa | 0 mm | 1.34 m/s, 236° | 467 W/m² | - |
| 1788099580 | 26.67° C | 46% | 1007.9 hPa | 0 mm | 0.89 m/s, 58° | 471 W/m² | - |
| 1788099517 | 26.67° C | 46% | 1007.8 hPa | 0 mm | 1.34 m/s, 227° | 485 W/m² | - |
| 1788099460 | 26.67° C | 45% | 1007.8 hPa | 0 mm | 1.34 m/s, 246° | 502 W/m² | - |
| 1788099405 | 26.67° C | 45% | 1008 hPa | 0 mm | 2.68 m/s, 217° | 507 W/m² | - |
| 1788099338 | 26.67° C | 47% | 1007.9 hPa | 0 mm | 1.34 m/s, 310° | 364 W/m² | - |
| 1788099278 | 26.67° C | 47% | 1007.9 hPa | 0 mm | 0.89 m/s, 241° | 228 W/m² | - |
| 1788099218 | 26.67° C | 48% | 1007.8 hPa | 0 mm | 0 m/s | 168 W/m² | - |
| 1788099157 | 26.67° C | 46% | 1007.9 hPa | 0 mm | 0.89 m/s, 237° | 149 W/m² | - |
| 1788099101 | 26.67° C | 47% | 1007.6 hPa | 0 mm | 0.89 m/s, 321° | 147 W/m² | - |
* Rain latest hour (hover to see other rain measurements)
** Current wind speed in m/s (hover to see current wind gust speed)